createdAt,value
2019-01-27T00:01:37.041Z,98751.83
2019-01-27T00:04:07.701Z,98746.30
2019-01-27T00:06:38.728Z,98733.56
2019-01-27T00:09:12.650Z,98727.63
2019-01-27T00:11:43.702Z,98728.19
2019-01-27T00:14:15.198Z,98730.20
2019-01-27T00:16:46.002Z,98722.17
2019-01-27T00:19:16.910Z,98718.83
2019-01-27T00:21:47.474Z,98701.75
2019-01-27T00:24:18.514Z,98703.32
2019-01-27T00:26:49.546Z,98706.39
2019-01-27T00:29:20.239Z,98694.52
2019-01-27T00:31:50.953Z,98695.57
2019-01-27T00:34:21.693Z,98680.52
2019-01-27T00:36:52.122Z,98678.46
2019-01-27T00:39:22.860Z,98675.03
2019-01-27T00:41:53.358Z,98670.92
2019-01-27T00:44:23.787Z,98662.02
2019-01-27T00:46:54.490Z,98654.66
2019-01-27T00:49:25.204Z,98647.89
2019-01-27T00:51:55.621Z,98642.95
2019-01-27T00:54:26.097Z,98649.22
2019-01-27T00:56:56.833Z,98637.61
2019-01-27T00:59:27.252Z,98635.39
2019-01-27T01:01:58.006Z,98632.65
2019-01-27T01:04:28.448Z,98621.95
2019-01-27T01:06:58.881Z,98621.64
2019-01-27T01:09:29.307Z,98613.17
2019-01-27T01:12:00.021Z,98598.81
2019-01-27T01:14:32.774Z,98604.74
2019-01-27T01:17:03.999Z,98601.51
2019-01-27T01:19:36.323Z,98595.18
2019-01-27T01:22:08.467Z,98589.25
2019-01-27T01:24:44.417Z,98587.52
2019-01-27T01:27:22.453Z,98579.53
2019-01-27T01:29:54.491Z,98580.30
2019-01-27T01:32:26.876Z,98575.50
2019-01-27T01:34:57.364Z,98567.75
2019-01-27T01:37:27.847Z,98560.09
2019-01-27T01:39:58.282Z,98558.41
2019-01-27T01:42:28.740Z,98553.84
2019-01-27T01:44:59.165Z,98549.45
2019-01-27T01:47:29.722Z,98539.97
2019-01-27T01:50:00.259Z,98532.54
2019-01-27T01:52:30.620Z,98530.41
2019-01-27T01:55:01.091Z,98525.03
2019-01-27T01:57:31.588Z,98515.67
2019-01-27T02:00:02.072Z,98519.25
2019-01-27T02:02:32.497Z,98516.62
2019-01-27T02:05:03.596Z,98505.31
2019-01-27T02:07:34.316Z,98507.36
2019-01-27T02:10:05.983Z,98497.62
2019-01-27T02:12:36.720Z,98489.56
2019-01-27T02:15:16.922Z,98486.16
2019-01-27T02:17:47.343Z,98479.23
2019-01-27T02:20:17.803Z,98466.54
2019-01-27T02:22:48.267Z,98468.00
2019-01-27T02:25:18.723Z,98447.71
2019-01-27T02:27:49.195Z,98454.79
2019-01-27T02:30:21.275Z,98444.09
2019-01-27T02:32:51.949Z,98429.05
2019-01-27T02:35:22.493Z,98428.52
2019-01-27T02:37:53.244Z,98425.41
2019-01-27T02:40:23.695Z,98416.28
2019-01-27T02:42:54.315Z,98412.41
2019-01-27T02:45:24.935Z,98415.83
2019-01-27T02:47:55.611Z,98404.69
2019-01-27T02:50:26.061Z,98387.74
2019-01-27T02:52:56.559Z,98388.64
2019-01-27T02:55:27.340Z,98391.99
2019-01-27T02:57:57.811Z,98381.73
2019-01-27T03:00:28.266Z,98369.66
2019-01-27T03:02:59.731Z,98371.17
2019-01-27T03:05:49.085Z,98376.70
2019-01-27T03:08:19.864Z,98367.38
2019-01-27T03:10:50.584Z,98362.05
2019-01-27T03:13:21.337Z,98354.84
2019-01-27T03:15:52.059Z,98347.23
2019-01-27T03:18:22.737Z,98350.36
2019-01-27T03:20:53.357Z,98347.02
2019-01-27T03:23:23.732Z,98338.75
2019-01-27T03:25:54.157Z,98342.39
2019-01-27T03:28:24.615Z,98333.14
2019-01-27T03:30:55.034Z,98337.52
2019-01-27T03:33:25.466Z,98335.33
2019-01-27T03:35:56.426Z,98324.46
2019-01-27T03:38:26.911Z,98327.97
2019-01-27T03:40:57.435Z,98316.39
2019-01-27T03:43:27.974Z,98313.14
2019-01-27T03:45:58.322Z,98310.33
2019-01-27T03:48:29.369Z,98302.88
2019-01-27T03:50:59.841Z,98291.17
2019-01-27T03:53:30.331Z,98296.19
2019-01-27T03:56:00.789Z,98296.28
2019-01-27T03:58:31.267Z,98286.00
2019-01-27T04:01:01.703Z,98274.68
2019-01-27T04:03:32.141Z,98267.77
2019-01-27T04:06:02.696Z,98263.45
2019-01-27T04:08:33.127Z,98251.64
2019-01-27T04:11:03.840Z,98261.92
2019-01-27T04:13:34.359Z,98242.70
2019-01-27T04:16:05.183Z,98241.80
2019-01-27T04:18:35.726Z,98241.25
2019-01-27T04:21:06.187Z,98235.16
2019-01-27T04:23:37.027Z,98227.59
2019-01-27T04:26:07.548Z,98233.56
2019-01-27T04:28:38.273Z,98222.88
2019-01-27T04:31:08.719Z,98216.77
2019-01-27T04:33:39.158Z,98228.39
2019-01-27T04:36:09.639Z,98229.62
2019-01-27T04:38:40.275Z,98212.15
2019-01-27T04:41:10.697Z,98206.53
2019-01-27T04:43:41.069Z,98193.08
2019-01-27T04:46:11.502Z,98201.37
2019-01-27T04:48:41.965Z,98195.61
2019-01-27T04:51:12.443Z,98187.65
2019-01-27T04:53:42.885Z,98179.30
2019-01-27T04:56:13.393Z,98178.20
2019-01-27T04:58:44.118Z,98173.73
2019-01-27T05:01:14.848Z,98160.12
2019-01-27T05:03:53.196Z,98168.80
2019-01-27T05:06:23.712Z,98171.89
2019-01-27T05:08:54.134Z,98170.30
2019-01-27T05:11:24.654Z,98169.31
2019-01-27T05:13:55.078Z,98164.15
2019-01-27T05:16:25.798Z,98161.32
2019-01-27T05:18:56.250Z,98161.02
2019-01-27T05:21:26.745Z,98162.56
2019-01-27T05:23:57.136Z,98158.30
2019-01-27T05:26:27.619Z,98155.27
2019-01-27T05:28:58.340Z,98153.61
2019-01-27T05:31:28.701Z,98133.91
2019-01-27T05:33:59.158Z,98133.25
2019-01-27T05:36:29.772Z,98127.55
2019-01-27T05:39:00.204Z,98120.70
2019-01-27T05:41:30.818Z,98125.71
2019-01-27T05:44:01.252Z,98127.06
2019-01-27T05:46:31.680Z,98114.84
2019-01-27T05:49:02.177Z,98107.94
2019-01-27T05:51:32.601Z,98109.22
2019-01-27T05:54:03.043Z,98101.09
2019-01-27T05:56:33.529Z,98092.98
2019-01-27T05:59:04.016Z,98099.95
2019-01-27T06:01:34.430Z,98084.84
2019-01-27T06:04:04.884Z,98087.04
2019-01-27T06:06:35.304Z,98085.59
2019-01-27T06:09:09.014Z,98084.59
2019-01-27T06:11:39.735Z,98087.92
2019-01-27T06:14:10.104Z,98083.05
2019-01-27T06:16:40.818Z,98084.34
2019-01-27T06:19:11.535Z,98083.73
2019-01-27T06:21:41.964Z,98083.34
2019-01-27T06:24:12.670Z,98063.43
2019-01-27T06:26:43.030Z,98070.05
2019-01-27T06:29:13.477Z,98055.19
2019-01-27T06:31:44.213Z,98059.22
2019-01-27T06:34:16.857Z,98049.34
2019-01-27T06:36:47.388Z,98043.44
2019-01-27T06:39:18.152Z,98047.56
2019-01-27T06:41:48.607Z,98041.24
2019-01-27T06:44:19.300Z,98029.88
2019-01-27T06:46:50.013Z,98037.82
2019-01-27T06:49:20.381Z,98032.75
2019-01-27T06:51:50.753Z,98035.23
2019-01-27T06:54:21.312Z,98036.88
2019-01-27T06:56:51.782Z,98028.30
2019-01-27T06:59:38.913Z,98030.23
2019-01-27T07:02:17.695Z,98036.17
2019-01-27T07:05:05.689Z,98036.98
2019-01-27T07:07:54.832Z,98035.83
2019-01-27T07:10:42.893Z,98032.07
2019-01-27T07:13:50.202Z,98027.09
2019-01-27T07:16:34.027Z,98018.26
2019-01-27T07:19:25.704Z,98019.55
2019-01-27T07:22:32.728Z,98023.72
2019-01-27T07:25:25.278Z,98023.62
2019-01-27T07:28:17.571Z,98027.14
2019-01-27T07:31:26.947Z,98014.09
2019-01-27T07:34:15.246Z,98010.06
2019-01-27T07:36:57.474Z,98007.34
2019-01-27T07:39:46.547Z,98006.80
2019-01-27T07:42:31.073Z,98004.22
2019-01-27T07:45:18.754Z,98005.25
2019-01-27T07:47:59.914Z,97996.66
2019-01-27T07:50:47.835Z,98004.09
2019-01-27T07:53:25.039Z,98003.70
2019-01-27T07:56:06.633Z,97999.28
2019-01-27T07:58:48.523Z,98003.38
2019-01-27T08:01:33.573Z,98018.87
2019-01-27T08:04:13.711Z,97991.11
2019-01-27T08:07:00.733Z,97989.73
2019-01-27T08:09:49.945Z,97986.98
2019-01-27T08:12:46.471Z,97985.14
2019-01-27T08:15:39.077Z,97987.08
2019-01-27T08:18:27.364Z,97986.98
2019-01-27T08:21:10.173Z,97983.49
2019-01-27T08:24:11.505Z,97984.23
2019-01-27T08:26:53.639Z,97983.23
2019-01-27T08:29:38.090Z,97978.35
2019-01-27T08:32:25.842Z,97981.29
2019-01-27T08:35:09.786Z,97979.63
2019-01-27T08:38:04.836Z,97980.41
2019-01-27T08:40:54.199Z,97985.56
2019-01-27T08:43:39.333Z,97980.20
2019-01-27T08:46:19.506Z,97983.18
2019-01-27T08:48:49.934Z,97987.24
2019-01-27T08:51:20.374Z,97972.84
2019-01-27T08:53:51.130Z,97975.88
2019-01-27T08:56:21.870Z,97961.12
2019-01-27T08:58:52.680Z,97956.97
2019-01-27T09:01:40.495Z,97956.52
2019-01-27T09:04:16.457Z,97961.13
2019-01-27T09:06:53.228Z,97961.13
2019-01-27T09:09:45.897Z,97955.06
2019-01-27T09:12:34.565Z,97957.17
2019-01-27T09:15:23.414Z,97958.75
2019-01-27T09:18:18.650Z,97963.65
2019-01-27T09:21:00.894Z,97952.30
2019-01-27T09:24:05.277Z,97948.52
2019-01-27T09:26:48.611Z,97943.15
2019-01-27T09:29:40.757Z,97948.15
2019-01-27T09:32:32.879Z,97947.77
2019-01-27T09:35:25.723Z,97940.41
2019-01-27T09:38:16.314Z,97944.46
2019-01-27T09:41:11.102Z,97939.29
2019-01-27T09:44:00.414Z,97938.94
2019-01-27T09:46:58.748Z,97934.30
2019-01-27T09:49:53.818Z,97934.05
2019-01-27T09:52:55.292Z,97934.78
2019-01-27T09:55:50.476Z,97928.21
2019-01-27T09:58:48.496Z,97928.95
2019-01-27T10:01:30.529Z,97928.03
2019-01-27T10:04:24.395Z,97920.83
2019-01-27T10:07:03.371Z,97931.91
2019-01-27T10:09:58.594Z,97933.94
2019-01-27T10:12:43.918Z,97927.20
2019-01-27T10:15:40.426Z,97932.75
2019-01-27T10:18:22.053Z,97932.75
2019-01-27T10:21:09.784Z,97930.34
2019-01-27T10:23:53.638Z,97924.70
2019-01-27T10:26:41.525Z,97921.84
2019-01-27T10:29:25.258Z,97916.22
2019-01-27T10:32:02.726Z,97928.41
2019-01-27T10:34:43.321Z,97922.02
2019-01-27T10:37:23.577Z,97922.68
2019-01-27T10:40:13.263Z,97918.31
2019-01-27T10:42:50.661Z,97914.55
2019-01-27T10:45:55.538Z,97914.44
2019-01-27T10:48:44.921Z,97916.56
2019-01-27T10:51:23.885Z,97907.23
2019-01-27T10:54:09.409Z,97904.92
2019-01-27T10:57:01.656Z,97914.53
2019-01-27T10:59:57.155Z,97898.95
2019-01-27T11:02:46.508Z,97892.56
2019-01-27T11:05:23.548Z,97888.23
2019-01-27T11:08:15.805Z,97890.72
2019-01-27T11:10:53.971Z,97883.24
2019-01-27T11:13:48.893Z,97887.39
2019-01-27T11:16:33.573Z,97880.38
2019-01-27T11:19:22.861Z,97882.23
2019-01-27T11:22:15.218Z,97889.14
2019-01-27T11:25:16.534Z,97877.23
2019-01-27T11:27:59.103Z,97873.84
2019-01-27T11:30:54.096Z,97873.18
2019-01-27T11:33:34.173Z,97869.86
2019-01-27T11:36:22.628Z,97873.28
2019-01-27T11:39:29.998Z,97864.41
2019-01-27T11:42:21.892Z,97863.67
2019-01-27T11:45:00.367Z,97865.32
2019-01-27T11:47:48.126Z,97870.52
2019-01-27T11:50:22.128Z,97856.94
2019-01-27T11:52:55.695Z,97864.50
2019-01-27T11:55:26.304Z,97864.50
2019-01-27T11:57:56.754Z,97854.71
2019-01-27T12:00:34.194Z,97851.83
2019-01-27T12:03:04.921Z,97854.23
2019-01-27T12:05:35.563Z,97850.24
2019-01-27T12:08:06.041Z,97847.31
2019-01-27T12:10:36.478Z,97842.77
2019-01-27T12:13:07.156Z,97841.86
2019-01-27T12:15:37.908Z,97839.66
2019-01-27T12:18:08.354Z,97832.37
2019-01-27T12:20:38.792Z,97835.69
2019-01-27T12:23:09.342Z,97833.45
2019-01-27T12:25:39.714Z,97836.14
2019-01-27T12:28:10.155Z,97842.50
2019-01-27T12:30:40.637Z,97829.13
2019-01-27T12:33:11.107Z,97829.52
2019-01-27T12:35:41.820Z,97821.67
2019-01-27T12:38:12.283Z,97825.27
2019-01-27T12:40:42.720Z,97824.64
2019-01-27T12:43:13.469Z,97826.57
2019-01-27T12:45:43.913Z,97825.73
2019-01-27T12:48:14.410Z,97823.43
2019-01-27T12:50:45.075Z,97820.78
2019-01-27T12:53:15.773Z,97818.09
2019-01-27T12:55:46.247Z,97828.70
2019-01-27T12:58:16.619Z,97827.69
2019-01-27T13:00:52.463Z,97817.08
2019-01-27T13:03:22.975Z,97827.48
2019-01-27T13:05:53.681Z,97824.83
2019-01-27T13:08:24.067Z,97823.71
2019-01-27T13:10:55.259Z,97833.14
2019-01-27T13:13:25.698Z,97822.42
2019-01-27T13:15:56.521Z,97826.30
2019-01-27T13:18:26.937Z,97820.75
2019-01-27T13:20:57.675Z,97824.73
2019-01-27T13:23:28.125Z,97819.56
2019-01-27T13:25:58.572Z,97821.48
2019-01-27T13:28:29.032Z,97827.49
2019-01-27T13:30:59.502Z,97811.81
2019-01-27T13:33:29.953Z,97824.63
2019-01-27T13:36:00.334Z,97819.92
2019-01-27T13:38:30.843Z,97818.34
2019-01-27T13:41:01.284Z,97811.53
2019-01-27T13:43:31.833Z,97822.22
2019-01-27T13:46:02.442Z,97829.17
2019-01-27T13:48:32.965Z,97824.17
2019-01-27T13:51:03.669Z,97827.88
2019-01-27T13:53:34.192Z,97825.02
2019-01-27T13:56:04.875Z,97825.92
2019-01-27T13:58:35.723Z,97824.07
2019-01-27T14:01:06.603Z,97822.60
2019-01-27T14:03:37.401Z,97828.50
2019-01-27T14:06:08.153Z,97821.52
2019-01-27T14:08:38.604Z,97829.33
2019-01-27T14:11:09.047Z,97826.40
2019-01-27T14:13:39.742Z,97833.47
2019-01-27T14:16:10.455Z,97824.92
2019-01-27T14:18:40.901Z,97830.44
2019-01-27T14:21:16.424Z,97824.25
2019-01-27T14:23:43.609Z,97828.50
2019-01-27T14:26:14.032Z,97829.87
2019-01-27T14:28:44.455Z,97841.03
2019-01-27T14:31:15.136Z,97836.52
2019-01-27T14:33:45.425Z,97843.98
2019-01-27T14:36:15.872Z,97846.12
2019-01-27T14:38:46.335Z,97847.48
2019-01-27T14:41:16.770Z,97846.45
2019-01-27T14:43:47.224Z,97850.42
2019-01-27T14:46:17.726Z,97851.05
2019-01-27T14:48:48.406Z,97851.25
2019-01-27T14:51:18.844Z,97850.02
2019-01-27T14:53:49.343Z,97859.26
2019-01-27T14:56:20.063Z,97865.33
2019-01-27T14:58:50.778Z,97864.32
2019-01-27T15:01:21.262Z,97878.05
2019-01-27T15:03:52.252Z,97878.11
2019-01-27T15:06:22.690Z,97884.15
2019-01-27T15:08:53.216Z,97886.44
2019-01-27T15:11:23.584Z,97892.44
2019-01-27T15:13:54.271Z,97895.63
2019-01-27T15:16:24.727Z,97907.30
2019-01-27T15:18:55.183Z,97906.97
2019-01-27T15:21:28.556Z,97907.67
2019-01-27T15:23:59.251Z,97921.80
2019-01-27T15:26:29.721Z,97922.80
2019-01-27T15:29:00.293Z,97936.28
2019-01-27T15:31:30.711Z,97946.69
2019-01-27T15:34:01.378Z,97944.44
2019-01-27T15:36:31.182Z,97956.43
2019-01-27T15:39:01.742Z,97962.33
2019-01-27T15:41:32.167Z,97975.36
2019-01-27T15:44:02.874Z,97979.77
2019-01-27T15:46:33.314Z,97985.55
2019-01-27T15:49:03.852Z,97988.97
2019-01-27T15:51:34.560Z,97993.28
2019-01-27T15:54:05.141Z,97998.97
2019-01-27T15:56:35.812Z,98004.78
2019-01-27T15:59:06.271Z,98021.75
2019-01-27T16:01:36.952Z,98018.87
2019-01-27T16:04:07.663Z,98025.84
2019-01-27T16:06:38.347Z,98033.66
2019-01-27T16:09:09.979Z,98034.64
2019-01-27T16:11:40.432Z,98043.97
2019-01-27T16:14:10.958Z,98052.91
2019-01-27T16:16:41.715Z,98064.36
2019-01-27T16:19:12.246Z,98067.39
2019-01-27T16:21:42.685Z,98066.69
2019-01-27T16:24:24.395Z,98073.22
2019-01-27T16:26:54.885Z,98090.58
2019-01-27T16:29:46.310Z,98083.30
2019-01-27T16:32:25.763Z,98100.94
2019-01-27T16:35:00.257Z,98105.50
2019-01-27T16:37:31.345Z,98105.33
2019-01-27T16:40:02.088Z,98107.16
2019-01-27T16:42:32.530Z,98115.80
2019-01-27T16:45:03.225Z,98117.14
2019-01-27T16:47:34.269Z,98124.95
2019-01-27T16:50:06.879Z,98131.84
2019-01-27T16:52:37.658Z,98137.97
2019-01-27T16:55:11.426Z,98136.32
2019-01-27T16:57:41.898Z,98134.19
2019-01-27T17:00:21.078Z,98139.03
2019-01-27T17:02:51.903Z,98144.80
2019-01-27T17:05:22.588Z,98152.52
2019-01-27T17:07:54.714Z,98156.83
2019-01-27T17:10:25.969Z,98166.90
2019-01-27T17:12:56.802Z,98172.18
2019-01-27T17:15:27.417Z,98174.23
2019-01-27T17:17:57.876Z,98172.50
2019-01-27T17:20:28.566Z,98174.00
2019-01-27T17:22:58.987Z,98175.81
2019-01-27T17:25:29.464Z,98179.80
2019-01-27T17:27:59.886Z,98185.52
2019-01-27T17:30:30.793Z,98189.91
2019-01-27T17:33:01.254Z,98190.20
2019-01-27T17:35:31.718Z,98196.41
2019-01-27T17:38:02.178Z,98199.50
2019-01-27T17:40:32.988Z,98202.44
2019-01-27T17:43:03.674Z,98214.47
2019-01-27T17:45:34.384Z,98215.19
2019-01-27T17:48:05.965Z,98219.17
2019-01-27T17:50:36.422Z,98213.13
2019-01-27T17:53:07.913Z,98226.00
2019-01-27T17:55:45.108Z,98220.78
2019-01-27T17:58:36.220Z,98223.75
2019-01-27T18:01:38.152Z,98230.99
2019-01-27T18:04:26.159Z,98236.09
2019-01-27T18:07:19.636Z,98239.87
2019-01-27T18:10:15.140Z,98236.86
2019-01-27T18:13:22.936Z,98243.38
2019-01-27T18:15:53.374Z,98244.27
2019-01-27T18:18:24.218Z,98260.67
2019-01-27T18:20:54.967Z,98256.13
2019-01-27T18:23:25.456Z,98256.17
2019-01-27T18:25:55.943Z,98271.77
2019-01-27T18:28:26.487Z,98276.20
2019-01-27T18:30:57.336Z,98275.95
2019-01-27T18:33:28.108Z,98282.06
2019-01-27T18:35:58.865Z,98282.19
2019-01-27T18:38:29.389Z,98290.42
2019-01-27T18:40:59.915Z,98290.50
2019-01-27T18:43:30.376Z,98288.64
2019-01-27T18:46:01.152Z,98295.08
2019-01-27T18:48:31.783Z,98297.08
2019-01-27T18:51:02.568Z,98303.83
2019-01-27T18:53:52.182Z,98300.09
2019-01-27T18:56:30.493Z,98305.16
2019-01-27T18:59:14.043Z,98302.73
2019-01-27T19:01:55.527Z,98303.19
2019-01-27T19:04:46.738Z,98310.83
2019-01-27T19:07:47.710Z,98315.59
2019-01-27T19:10:26.989Z,98327.03
2019-01-27T19:13:06.932Z,98331.73
2019-01-27T19:15:54.857Z,98318.02
2019-01-27T19:18:34.614Z,98333.09
2019-01-27T19:21:33.391Z,98326.78
2019-01-27T19:24:15.713Z,98326.01
2019-01-27T19:27:10.613Z,98330.83
2019-01-27T19:30:00.212Z,98330.91
2019-01-27T19:32:48.569Z,98331.16
2019-01-27T19:35:36.118Z,98330.38
2019-01-27T19:38:23.363Z,98333.91
2019-01-27T19:41:12.777Z,98338.22
2019-01-27T19:44:11.073Z,98329.21
2019-01-27T19:47:13.065Z,98335.27
2019-01-27T19:49:53.847Z,98341.30
2019-01-27T19:52:46.249Z,98347.48
2019-01-27T19:55:41.637Z,98347.37
2019-01-27T19:58:27.470Z,98355.42
2019-01-27T20:01:19.476Z,98351.30
2019-01-27T20:03:56.851Z,98354.09
2019-01-27T20:06:44.966Z,98361.10
2019-01-27T20:09:34.389Z,98358.82
2019-01-27T20:12:15.087Z,98363.63
2019-01-27T20:14:57.449Z,98364.83
2019-01-27T20:17:47.073Z,98370.74
2019-01-27T20:20:26.853Z,98365.60
2019-01-27T20:23:16.226Z,98373.31
2019-01-27T20:26:05.015Z,98369.86
2019-01-27T20:29:06.758Z,98373.05
2019-01-27T20:31:55.793Z,98372.43
2019-01-27T20:34:38.892Z,98368.58
2019-01-27T20:37:16.182Z,98370.30
2019-01-27T20:40:10.848Z,98371.77
2019-01-27T20:43:03.216Z,98375.11
2019-01-27T20:45:53.327Z,98374.33
2019-01-27T20:48:58.025Z,98368.79
2019-01-27T20:51:40.528Z,98360.97
2019-01-27T20:54:20.324Z,98362.63
2019-01-27T20:57:06.645Z,98365.60
2019-01-27T20:59:56.953Z,98371.92
2019-01-27T21:02:48.831Z,98370.23
2019-01-27T21:05:26.812Z,98376.55
2019-01-27T21:08:10.989Z,98375.70
2019-01-27T21:11:07.100Z,98375.70
2019-01-27T21:13:52.968Z,98377.84
2019-01-27T21:16:43.783Z,98373.82
2019-01-27T21:19:18.446Z,98374.95
2019-01-27T21:21:49.127Z,98371.87
2019-01-27T21:24:20.713Z,98373.42
2019-01-27T21:26:51.251Z,98368.24
2019-01-27T21:29:21.961Z,98382.38
2019-01-27T21:31:52.768Z,98375.00
2019-01-27T21:34:23.601Z,98370.84
2019-01-27T21:36:55.222Z,98372.98
2019-01-27T21:39:27.988Z,98374.27
2019-01-27T21:41:58.738Z,98370.74
2019-01-27T21:44:29.683Z,98366.00
2019-01-27T21:47:00.571Z,98365.27
2019-01-27T21:49:31.519Z,98372.27
2019-01-27T21:52:02.432Z,98362.61
2019-01-27T21:54:33.043Z,98356.55
2019-01-27T21:57:03.695Z,98352.84
2019-01-27T21:59:34.590Z,98358.86
2019-01-27T22:02:05.347Z,98353.98
2019-01-27T22:04:36.331Z,98361.33
2019-01-27T22:07:07.082Z,98361.15
2019-01-27T22:09:37.699Z,98360.41
2019-01-27T22:12:08.545Z,98353.95
2019-01-27T22:14:39.392Z,98344.78
2019-01-27T22:17:10.719Z,98361.30
2019-01-27T22:19:41.507Z,98351.98
2019-01-27T22:22:12.236Z,98349.30
2019-01-27T22:24:42.979Z,98355.21
2019-01-27T22:27:13.407Z,98357.38
2019-01-27T22:29:43.862Z,98356.43
2019-01-27T22:32:14.309Z,98357.38
2019-01-27T22:34:44.800Z,98358.82
2019-01-27T22:37:15.315Z,98360.88
2019-01-27T22:39:46.024Z,98352.28
2019-01-27T22:42:17.099Z,98357.36
2019-01-27T22:44:47.836Z,98354.78
2019-01-27T22:47:18.521Z,98362.57
2019-01-27T22:49:49.257Z,98355.56
2019-01-27T22:52:19.948Z,98360.70
2019-01-27T22:54:50.980Z,98356.91
2019-01-27T22:57:21.674Z,98355.63
2019-01-27T22:59:52.116Z,98359.86
2019-01-27T23:02:22.814Z,98350.42
2019-01-27T23:04:53.574Z,98353.91
2019-01-27T23:07:24.452Z,98343.48
2019-01-27T23:09:55.178Z,98349.53
2019-01-27T23:12:25.738Z,98351.96
2019-01-27T23:14:56.201Z,98348.63
2019-01-27T23:17:26.944Z,98354.67
2019-01-27T23:19:57.713Z,98351.66
2019-01-27T23:22:28.099Z,98343.44
2019-01-27T23:24:58.529Z,98345.09
2019-01-27T23:27:29.135Z,98346.37
2019-01-27T23:29:59.591Z,98351.08
2019-01-27T23:32:30.064Z,98347.66
2019-01-27T23:35:00.777Z,98345.50
2019-01-27T23:37:31.276Z,98360.41
2019-01-27T23:40:02.037Z,98343.62
2019-01-27T23:42:33.008Z,98348.26
2019-01-27T23:45:04.454Z,98347.30
2019-01-27T23:47:34.903Z,98345.17
2019-01-27T23:50:05.888Z,98335.36
2019-01-27T23:52:36.305Z,98347.30
2019-01-27T23:55:07.056Z,98340.88
2019-01-27T23:57:37.548Z,98340.95
